sensor_id;sensor_type;location;lat;lon;timestamp;P1;durP1;ratioP1;P2;durP2;ratioP2
2225;SDS011;1119;48.288;8.726;2023-12-14T00:00:29;20.57;;;3.70;;
2225;SDS011;1119;48.288;8.726;2023-12-14T00:02:56;20.43;;;3.37;;
2225;SDS011;1119;48.288;8.726;2023-12-14T00:05:26;20.47;;;3.47;;
2225;SDS011;1119;48.288;8.726;2023-12-14T00:07:53;20.50;;;3.20;;
2225;SDS011;1119;48.288;8.726;2023-12-14T00:10:20;20.47;;;3.27;;
2225;SDS011;1119;48.288;8.726;2023-12-14T00:12:47;20.47;;;3.10;;
2225;SDS011;1119;48.288;8.726;2023-12-14T00:15:16;20.23;;;3.10;;
2225;SDS011;1119;48.288;8.726;2023-12-14T00:17:43;20.40;;;3.03;;
2225;SDS011;1119;48.288;8.726;2023-12-14T00:20:11;20.50;;;3.50;;
2225;SDS011;1119;48.288;8.726;2023-12-14T00:22:41;20.50;;;3.63;;
2225;SDS011;1119;48.288;8.726;2023-12-14T00:25:08;20.47;;;3.37;;
2225;SDS011;1119;48.288;8.726;2023-12-14T00:27:35;20.37;;;3.30;;
2225;SDS011;1119;48.288;8.726;2023-12-14T00:30:03;20.37;;;3.30;;
2225;SDS011;1119;48.288;8.726;2023-12-14T00:32:32;20.30;;;2.80;;
2225;SDS011;1119;48.288;8.726;2023-12-14T00:34:59;20.30;;;2.93;;
2225;SDS011;1119;48.288;8.726;2023-12-14T00:37:26;20.30;;;3.20;;
2225;SDS011;1119;48.288;8.726;2023-12-14T00:39:55;20.40;;;3.20;;
2225;SDS011;1119;48.288;8.726;2023-12-14T00:42:22;20.37;;;3.33;;
2225;SDS011;1119;48.288;8.726;2023-12-14T00:44:50;20.40;;;3.40;;
2225;SDS011;1119;48.288;8.726;2023-12-14T00:47:17;20.30;;;3.07;;
2225;SDS011;1119;48.288;8.726;2023-12-14T00:49:44;20.37;;;2.97;;
2225;SDS011;1119;48.288;8.726;2023-12-14T00:52:12;20.40;;;3.30;;
2225;SDS011;1119;48.288;8.726;2023-12-14T00:54:39;20.37;;;2.90;;
2225;SDS011;1119;48.288;8.726;2023-12-14T00:57:08;20.43;;;3.20;;
2225;SDS011;1119;48.288;8.726;2023-12-14T00:59:35;20.43;;;3.40;;
2225;SDS011;1119;48.288;8.726;2023-12-14T01:02:01;20.20;;;3.00;;
2225;SDS011;1119;48.288;8.726;2023-12-14T01:04:29;20.30;;;3.03;;
2225;SDS011;1119;48.288;8.726;2023-12-14T01:06:56;20.30;;;3.03;;
2225;SDS011;1119;48.288;8.726;2023-12-14T01:09:23;20.40;;;3.00;;
2225;SDS011;1119;48.288;8.726;2023-12-14T01:11:50;20.37;;;3.20;;
2225;SDS011;1119;48.288;8.726;2023-12-14T01:14:19;20.40;;;3.40;;
2225;SDS011;1119;48.288;8.726;2023-12-14T01:16:46;20.37;;;3.27;;
2225;SDS011;1119;48.288;8.726;2023-12-14T01:19:14;20.40;;;3.03;;
2225;SDS011;1119;48.288;8.726;2023-12-14T01:21:41;20.40;;;2.97;;
2225;SDS011;1119;48.288;8.726;2023-12-14T01:24:09;20.53;;;3.30;;
2225;SDS011;1119;48.288;8.726;2023-12-14T01:26:36;20.40;;;3.13;;
2225;SDS011;1119;48.288;8.726;2023-12-14T01:29:03;20.53;;;3.37;;
2225;SDS011;1119;48.288;8.726;2023-12-14T01:31:32;20.40;;;3.23;;
2225;SDS011;1119;48.288;8.726;2023-12-14T01:33:59;20.47;;;3.17;;
2225;SDS011;1119;48.288;8.726;2023-12-14T01:36:27;20.40;;;3.30;;
2225;SDS011;1119;48.288;8.726;2023-12-14T01:38:54;20.53;;;3.50;;
2225;SDS011;1119;48.288;8.726;2023-12-14T01:41:21;20.50;;;3.20;;
2225;SDS011;1119;48.288;8.726;2023-12-14T01:43:49;20.57;;;3.43;;
2225;SDS011;1119;48.288;8.726;2023-12-14T01:46:16;20.67;;;3.70;;
2225;SDS011;1119;48.288;8.726;2023-12-14T01:48:45;20.40;;;2.97;;
2225;SDS011;1119;48.288;8.726;2023-12-14T01:51:12;20.47;;;3.10;;
2225;SDS011;1119;48.288;8.726;2023-12-14T01:53:39;20.57;;;3.43;;
2225;SDS011;1119;48.288;8.726;2023-12-14T01:56:07;20.50;;;3.20;;
2225;SDS011;1119;48.288;8.726;2023-12-14T01:58:35;20.30;;;3.10;;
2225;SDS011;1119;48.288;8.726;2023-12-14T02:01:03;20.37;;;2.90;;
2225;SDS011;1119;48.288;8.726;2023-12-14T02:03:36;20.33;;;2.80;;
2225;SDS011;1119;48.288;8.726;2023-12-14T02:06:11;20.50;;;3.10;;
2225;SDS011;1119;48.288;8.726;2023-12-14T02:08:39;20.30;;;3.03;;
2225;SDS011;1119;48.288;8.726;2023-12-14T02:11:06;20.37;;;2.90;;
2225;SDS011;1119;48.288;8.726;2023-12-14T02:13:33;20.30;;;2.93;;
2225;SDS011;1119;48.288;8.726;2023-12-14T02:16:01;20.50;;;3.20;;
2225;SDS011;1119;48.288;8.726;2023-12-14T02:18:29;20.30;;;3.30;;
2225;SDS011;1119;48.288;8.726;2023-12-14T02:20:57;20.47;;;2.90;;
2225;SDS011;1119;48.288;8.726;2023-12-14T02:23:26;20.40;;;3.03;;
2225;SDS011;1119;48.288;8.726;2023-12-14T02:25:53;20.40;;;3.17;;
2225;SDS011;1119;48.288;8.726;2023-12-14T02:28:20;20.20;;;2.70;;
2225;SDS011;1119;48.288;8.726;2023-12-14T02:30:48;20.30;;;3.03;;
2225;SDS011;1119;48.288;8.726;2023-12-14T02:33:15;20.40;;;3.13;;
2225;SDS011;1119;48.288;8.726;2023-12-14T02:35:43;20.40;;;3.20;;
2225;SDS011;1119;48.288;8.726;2023-12-14T02:38:10;20.30;;;2.80;;
2225;SDS011;1119;48.288;8.726;2023-12-14T02:40:39;20.50;;;3.10;;
2225;SDS011;1119;48.288;8.726;2023-12-14T02:43:06;20.30;;;2.83;;
2225;SDS011;1119;48.288;8.726;2023-12-14T02:45:33;20.40;;;3.17;;
2225;SDS011;1119;48.288;8.726;2023-12-14T02:48:01;20.50;;;3.20;;
2225;SDS011;1119;48.288;8.726;2023-12-14T02:50:28;20.37;;;3.27;;
2225;SDS011;1119;48.288;8.726;2023-12-14T02:52:55;20.30;;;2.80;;
2225;SDS011;1119;48.288;8.726;2023-12-14T02:55:23;20.27;;;2.60;;
2225;SDS011;1119;48.288;8.726;2023-12-14T02:57:51;20.50;;;3.50;;
2225;SDS011;1119;48.288;8.726;2023-12-14T03:00:19;20.30;;;2.70;;
2225;SDS011;1119;48.288;8.726;2023-12-14T03:02:48;20.30;;;3.13;;
2225;SDS011;1119;48.288;8.726;2023-12-14T03:05:15;20.40;;;3.10;;
2225;SDS011;1119;48.288;8.726;2023-12-14T03:07:43;20.30;;;3.20;;
2225;SDS011;1119;48.288;8.726;2023-12-14T03:10:10;20.30;;;3.07;;
2225;SDS011;1119;48.288;8.726;2023-12-14T03:12:38;20.40;;;3.30;;
2225;SDS011;1119;48.288;8.726;2023-12-14T03:15:07;20.47;;;3.17;;
2225;SDS011;1119;48.288;8.726;2023-12-14T03:17:36;20.37;;;2.90;;
2225;SDS011;1119;48.288;8.726;2023-12-14T03:20:04;20.40;;;3.10;;
2225;SDS011;1119;48.288;8.726;2023-12-14T03:22:32;20.20;;;2.93;;
2225;SDS011;1119;48.288;8.726;2023-12-14T03:25:00;20.27;;;2.90;;
2225;SDS011;1119;48.288;8.726;2023-12-14T03:27:27;20.30;;;3.00;;
2225;SDS011;1119;48.288;8.726;2023-12-14T03:29:55;20.40;;;3.00;;
2225;SDS011;1119;48.288;8.726;2023-12-14T03:32:24;20.40;;;3.30;;
2225;SDS011;1119;48.288;8.726;2023-12-14T03:34:52;20.47;;;3.17;;
2225;SDS011;1119;48.288;8.726;2023-12-14T03:37:20;20.40;;;3.20;;
2225;SDS011;1119;48.288;8.726;2023-12-14T03:39:47;20.43;;;3.23;;
2225;SDS011;1119;48.288;8.726;2023-12-14T03:42:14;20.30;;;3.00;;
2225;SDS011;1119;48.288;8.726;2023-12-14T03:44:41;20.33;;;3.20;;
2225;SDS011;1119;48.288;8.726;2023-12-14T03:47:09;20.37;;;3.20;;
2225;SDS011;1119;48.288;8.726;2023-12-14T03:49:38;20.33;;;3.27;;
2225;SDS011;1119;48.288;8.726;2023-12-14T03:52:05;20.47;;;3.50;;
2225;SDS011;1119;48.288;8.726;2023-12-14T03:54:32;20.47;;;3.30;;
2225;SDS011;1119;48.288;8.726;2023-12-14T03:57:00;20.30;;;2.90;;
2225;SDS011;1119;48.288;8.726;2023-12-14T03:59:27;20.30;;;3.20;;
2225;SDS011;1119;48.288;8.726;2023-12-14T04:01:57;20.37;;;3.20;;
2225;SDS011;1119;48.288;8.726;2023-12-14T04:04:25;20.23;;;3.10;;
2225;SDS011;1119;48.288;8.726;2023-12-14T04:06:54;20.30;;;3.60;;
2225;SDS011;1119;48.288;8.726;2023-12-14T04:09:21;20.37;;;3.50;;
2225;SDS011;1119;48.288;8.726;2023-12-14T04:11:49;20.40;;;3.60;;
2225;SDS011;1119;48.288;8.726;2023-12-14T04:14:16;20.30;;;3.27;;
2225;SDS011;1119;48.288;8.726;2023-12-14T04:16:43;20.20;;;3.03;;
2225;SDS011;1119;48.288;8.726;2023-12-14T04:19:11;20.43;;;3.27;;
2225;SDS011;1119;48.288;8.726;2023-12-14T04:21:40;20.50;;;3.37;;
2225;SDS011;1119;48.288;8.726;2023-12-14T04:24:09;20.30;;;3.33;;
2225;SDS011;1119;48.288;8.726;2023-12-14T04:26:37;20.40;;;3.47;;
2225;SDS011;1119;48.288;8.726;2023-12-14T04:29:05;20.50;;;3.60;;
2225;SDS011;1119;48.288;8.726;2023-12-14T04:31:34;20.33;;;3.27;;
2225;SDS011;1119;48.288;8.726;2023-12-14T04:34:01;20.50;;;4.00;;
2225;SDS011;1119;48.288;8.726;2023-12-14T04:36:29;20.47;;;3.87;;
2225;SDS011;1119;48.288;8.726;2023-12-14T04:38:56;20.47;;;3.53;;
2225;SDS011;1119;48.288;8.726;2023-12-14T04:41:25;20.40;;;3.47;;
2225;SDS011;1119;48.288;8.726;2023-12-14T04:43:52;20.50;;;3.73;;
2225;SDS011;1119;48.288;8.726;2023-12-14T04:46:20;20.47;;;3.60;;
2225;SDS011;1119;48.288;8.726;2023-12-14T04:48:47;20.40;;;3.33;;
2225;SDS011;1119;48.288;8.726;2023-12-14T04:51:14;20.43;;;3.60;;
2225;SDS011;1119;48.288;8.726;2023-12-14T04:53:42;20.33;;;3.10;;
2225;SDS011;1119;48.288;8.726;2023-12-14T04:56:09;20.50;;;3.47;;
2225;SDS011;1119;48.288;8.726;2023-12-14T04:58:39;20.47;;;3.77;;
2225;SDS011;1119;48.288;8.726;2023-12-14T05:01:07;20.50;;;3.70;;
2225;SDS011;1119;48.288;8.726;2023-12-14T05:03:35;20.60;;;4.33;;
2225;SDS011;1119;48.288;8.726;2023-12-14T05:06:03;20.50;;;3.63;;
2225;SDS011;1119;48.288;8.726;2023-12-14T05:08:31;20.50;;;3.70;;
2225;SDS011;1119;48.288;8.726;2023-12-14T05:10:59;20.40;;;3.27;;
2225;SDS011;1119;48.288;8.726;2023-12-14T05:13:26;20.43;;;3.40;;
2225;SDS011;1119;48.288;8.726;2023-12-14T05:15:55;20.57;;;4.03;;
2225;SDS011;1119;48.288;8.726;2023-12-14T05:18:23;20.70;;;4.10;;
2225;SDS011;1119;48.288;8.726;2023-12-14T05:20:50;20.50;;;3.43;;
2225;SDS011;1119;48.288;8.726;2023-12-14T05:23:17;20.60;;;3.70;;
2225;SDS011;1119;48.288;8.726;2023-12-14T05:25:45;20.67;;;4.03;;
2225;SDS011;1119;48.288;8.726;2023-12-14T05:28:13;20.50;;;3.77;;
2225;SDS011;1119;48.288;8.726;2023-12-14T05:30:40;20.73;;;4.10;;
2225;SDS011;1119;48.288;8.726;2023-12-14T05:33:09;20.70;;;4.20;;
2225;SDS011;1119;48.288;8.726;2023-12-14T05:35:36;20.67;;;3.97;;
2225;SDS011;1119;48.288;8.726;2023-12-14T05:38:04;20.87;;;4.70;;
2225;SDS011;1119;48.288;8.726;2023-12-14T05:40:31;20.63;;;3.90;;
2225;SDS011;1119;48.288;8.726;2023-12-14T05:42:58;20.70;;;4.50;;
2225;SDS011;1119;48.288;8.726;2023-12-14T05:45:26;20.70;;;3.73;;
2225;SDS011;1119;48.288;8.726;2023-12-14T05:47:54;20.77;;;4.40;;
2225;SDS011;1119;48.288;8.726;2023-12-14T05:50:22;20.50;;;3.83;;
2225;SDS011;1119;48.288;8.726;2023-12-14T05:52:50;20.70;;;4.30;;
2225;SDS011;1119;48.288;8.726;2023-12-14T05:55:17;20.83;;;4.47;;
2225;SDS011;1119;48.288;8.726;2023-12-14T05:57:50;20.73;;;4.20;;
2225;SDS011;1119;48.288;8.726;2023-12-14T06:00:20;20.57;;;4.17;;
2225;SDS011;1119;48.288;8.726;2023-12-14T06:02:47;20.57;;;3.47;;
2225;SDS011;1119;48.288;8.726;2023-12-14T06:05:15;20.40;;;3.83;;
2225;SDS011;1119;48.288;8.726;2023-12-14T06:07:44;20.60;;;4.07;;
2225;SDS011;1119;48.288;8.726;2023-12-14T06:10:12;20.50;;;3.93;;
2225;SDS011;1119;48.288;8.726;2023-12-14T06:12:39;20.40;;;3.77;;
2225;SDS011;1119;48.288;8.726;2023-12-14T06:15:07;20.53;;;3.80;;
2225;SDS011;1119;48.288;8.726;2023-12-14T06:17:36;20.60;;;3.57;;
2225;SDS011;1119;48.288;8.726;2023-12-14T06:20:05;20.57;;;3.80;;
2225;SDS011;1119;48.288;8.726;2023-12-14T06:22:35;20.53;;;3.60;;
2225;SDS011;1119;48.288;8.726;2023-12-14T06:25:04;20.47;;;3.67;;
2225;SDS011;1119;48.288;8.726;2023-12-14T06:27:32;20.50;;;3.83;;
2225;SDS011;1119;48.288;8.726;2023-12-14T06:30:00;20.30;;;3.77;;
2225;SDS011;1119;48.288;8.726;2023-12-14T06:32:28;20.47;;;3.77;;
2225;SDS011;1119;48.288;8.726;2023-12-14T06:34:58;20.50;;;3.50;;
2225;SDS011;1119;48.288;8.726;2023-12-14T06:37:25;20.53;;;3.53;;
2225;SDS011;1119;48.288;8.726;2023-12-14T06:39:53;20.53;;;3.77;;
2225;SDS011;1119;48.288;8.726;2023-12-14T06:42:23;20.50;;;3.83;;
2225;SDS011;1119;48.288;8.726;2023-12-14T06:44:53;20.43;;;3.63;;
2225;SDS011;1119;48.288;8.726;2023-12-14T06:47:21;20.43;;;3.30;;
2225;SDS011;1119;48.288;8.726;2023-12-14T06:49:48;20.60;;;3.70;;
2225;SDS011;1119;48.288;8.726;2023-12-14T06:52:16;20.60;;;4.10;;
2225;SDS011;1119;48.288;8.726;2023-12-14T06:54:43;20.47;;;3.53;;
2225;SDS011;1119;48.288;8.726;2023-12-14T06:57:10;20.50;;;3.67;;
2225;SDS011;1119;48.288;8.726;2023-12-14T06:59:39;20.57;;;3.63;;
2225;SDS011;1119;48.288;8.726;2023-12-14T07:02:07;20.57;;;3.60;;
2225;SDS011;1119;48.288;8.726;2023-12-14T07:04:34;20.50;;;3.80;;
2225;SDS011;1119;48.288;8.726;2023-12-14T07:07:01;20.57;;;3.83;;
2225;SDS011;1119;48.288;8.726;2023-12-14T07:09:29;20.50;;;3.50;;
2225;SDS011;1119;48.288;8.726;2023-12-14T07:11:56;20.60;;;4.13;;
2225;SDS011;1119;48.288;8.726;2023-12-14T07:14:24;20.60;;;4.00;;
2225;SDS011;1119;48.288;8.726;2023-12-14T07:16:52;20.40;;;3.60;;
2225;SDS011;1119;48.288;8.726;2023-12-14T07:19:19;20.50;;;3.50;;
2225;SDS011;1119;48.288;8.726;2023-12-14T07:21:47;20.63;;;4.40;;
2225;SDS011;1119;48.288;8.726;2023-12-14T07:24:14;20.47;;;3.87;;
2225;SDS011;1119;48.288;8.726;2023-12-14T07:26:41;20.47;;;3.83;;
2225;SDS011;1119;48.288;8.726;2023-12-14T07:29:09;20.60;;;4.23;;
2225;SDS011;1119;48.288;8.726;2023-12-14T07:31:36;20.47;;;3.97;;
2225;SDS011;1119;48.288;8.726;2023-12-14T07:34:05;20.53;;;3.90;;
2225;SDS011;1119;48.288;8.726;2023-12-14T07:36:32;20.50;;;4.40;;
2225;SDS011;1119;48.288;8.726;2023-12-14T07:38:59;20.63;;;4.23;;
2225;SDS011;1119;48.288;8.726;2023-12-14T07:41:27;20.70;;;4.53;;
2225;SDS011;1119;48.288;8.726;2023-12-14T07:43:55;20.40;;;4.07;;
2225;SDS011;1119;48.288;8.726;2023-12-14T07:46:23;20.50;;;3.87;;
2225;SDS011;1119;48.288;8.726;2023-12-14T07:48:50;20.40;;;4.20;;
2225;SDS011;1119;48.288;8.726;2023-12-14T07:51:19;20.60;;;4.23;;
2225;SDS011;1119;48.288;8.726;2023-12-14T07:53:46;20.73;;;4.80;;
2225;SDS011;1119;48.288;8.726;2023-12-14T07:56:14;20.70;;;4.33;;
2225;SDS011;1119;48.288;8.726;2023-12-14T07:58:41;20.67;;;4.30;;
2225;SDS011;1119;48.288;8.726;2023-12-14T08:01:08;20.47;;;3.97;;
2225;SDS011;1119;48.288;8.726;2023-12-14T08:03:35;20.60;;;4.00;;
2225;SDS011;1119;48.288;8.726;2023-12-14T08:06:03;20.63;;;4.50;;
2225;SDS011;1119;48.288;8.726;2023-12-14T08:08:32;20.43;;;3.70;;
2225;SDS011;1119;48.288;8.726;2023-12-14T08:10:59;20.60;;;3.90;;
2225;SDS011;1119;48.288;8.726;2023-12-14T08:13:28;20.60;;;4.30;;
2225;SDS011;1119;48.288;8.726;2023-12-14T08:15:56;20.53;;;3.87;;
2225;SDS011;1119;48.288;8.726;2023-12-14T08:18:23;20.50;;;3.97;;
2225;SDS011;1119;48.288;8.726;2023-12-14T08:20:50;20.57;;;4.10;;
2225;SDS011;1119;48.288;8.726;2023-12-14T08:23:20;20.53;;;3.80;;
2225;SDS011;1119;48.288;8.726;2023-12-14T08:25:50;20.53;;;3.90;;
2225;SDS011;1119;48.288;8.726;2023-12-14T08:28:17;20.50;;;4.00;;
2225;SDS011;1119;48.288;8.726;2023-12-14T08:30:44;20.40;;;3.57;;
2225;SDS011;1119;48.288;8.726;2023-12-14T08:33:12;20.37;;;3.30;;
2225;SDS011;1119;48.288;8.726;2023-12-14T08:35:39;20.40;;;3.70;;
2225;SDS011;1119;48.288;8.726;2023-12-14T08:38:06;20.50;;;3.90;;
2225;SDS011;1119;48.288;8.726;2023-12-14T08:40:33;20.50;;;3.90;;
2225;SDS011;1119;48.288;8.726;2023-12-14T08:43:02;20.40;;;3.70;;
2225;SDS011;1119;48.288;8.726;2023-12-14T08:45:33;20.47;;;4.43;;
2225;SDS011;1119;48.288;8.726;2023-12-14T08:48:00;20.40;;;3.60;;
2225;SDS011;1119;48.288;8.726;2023-12-14T08:50:27;20.40;;;3.87;;
2225;SDS011;1119;48.288;8.726;2023-12-14T08:52:57;20.30;;;3.43;;
2225;SDS011;1119;48.288;8.726;2023-12-14T08:55:27;20.53;;;3.90;;
2225;SDS011;1119;48.288;8.726;2023-12-14T08:57:58;20.33;;;3.53;;
2225;SDS011;1119;48.288;8.726;2023-12-14T09:00:27;20.30;;;3.50;;
2225;SDS011;1119;48.288;8.726;2023-12-14T09:02:54;20.40;;;3.83;;
2225;SDS011;1119;48.288;8.726;2023-12-14T09:05:22;20.37;;;3.57;;
2225;SDS011;1119;48.288;8.726;2023-12-14T09:07:51;20.30;;;3.77;;
2225;SDS011;1119;48.288;8.726;2023-12-14T09:10:21;20.17;;;3.43;;
2225;SDS011;1119;48.288;8.726;2023-12-14T09:12:48;20.33;;;3.33;;
2225;SDS011;1119;48.288;8.726;2023-12-14T09:15:16;20.23;;;3.33;;
2225;SDS011;1119;48.288;8.726;2023-12-14T09:17:44;20.40;;;3.87;;
2225;SDS011;1119;48.288;8.726;2023-12-14T09:20:12;20.30;;;3.60;;
2225;SDS011;1119;48.288;8.726;2023-12-14T09:22:39;20.30;;;4.07;;
2225;SDS011;1119;48.288;8.726;2023-12-14T09:25:07;20.47;;;3.67;;
2225;SDS011;1119;48.288;8.726;2023-12-14T09:27:35;20.40;;;3.70;;
2225;SDS011;1119;48.288;8.726;2023-12-14T09:30:03;20.40;;;3.77;;
2225;SDS011;1119;48.288;8.726;2023-12-14T09:32:31;20.20;;;3.57;;
2225;SDS011;1119;48.288;8.726;2023-12-14T09:35:00;20.20;;;3.23;;
2225;SDS011;1119;48.288;8.726;2023-12-14T09:37:27;20.20;;;3.10;;
2225;SDS011;1119;48.288;8.726;2023-12-14T09:39:55;20.40;;;3.70;;
2225;SDS011;1119;48.288;8.726;2023-12-14T09:42:22;20.33;;;3.43;;
2225;SDS011;1119;48.288;8.726;2023-12-14T09:44:49;20.27;;;3.17;;
2225;SDS011;1119;48.288;8.726;2023-12-14T09:47:19;20.37;;;3.37;;
2225;SDS011;1119;48.288;8.726;2023-12-14T09:49:46;20.23;;;3.40;;
2225;SDS011;1119;48.288;8.726;2023-12-14T09:52:17;20.20;;;2.97;;
2225;SDS011;1119;48.288;8.726;2023-12-14T09:54:44;20.13;;;2.73;;
2225;SDS011;1119;48.288;8.726;2023-12-14T09:57:11;20.30;;;3.33;;
2225;SDS011;1119;48.288;8.726;2023-12-14T09:59:39;20.10;;;2.97;;
2225;SDS011;1119;48.288;8.726;2023-12-14T10:02:10;20.20;;;2.73;;
2225;SDS011;1119;48.288;8.726;2023-12-14T10:04:38;20.20;;;3.17;;
2225;SDS011;1119;48.288;8.726;2023-12-14T10:07:06;20.10;;;3.33;;
2225;SDS011;1119;48.288;8.726;2023-12-14T10:09:34;20.17;;;3.03;;
2225;SDS011;1119;48.288;8.726;2023-12-14T10:12:04;20.10;;;2.90;;
2225;SDS011;1119;48.288;8.726;2023-12-14T10:14:34;20.30;;;3.50;;
2225;SDS011;1119;48.288;8.726;2023-12-14T10:17:16;20.20;;;3.07;;
2225;SDS011;1119;48.288;8.726;2023-12-14T10:19:45;20.10;;;3.07;;
2225;SDS011;1119;48.288;8.726;2023-12-14T10:22:14;20.10;;;3.03;;
2225;SDS011;1119;48.288;8.726;2023-12-14T10:24:44;20.07;;;2.63;;
2225;SDS011;1119;48.288;8.726;2023-12-14T10:27:13;20.17;;;3.10;;
2225;SDS011;1119;48.288;8.726;2023-12-14T10:29:41;20.00;;;3.10;;
2225;SDS011;1119;48.288;8.726;2023-12-14T10:32:10;20.10;;;3.10;;
2225;SDS011;1119;48.288;8.726;2023-12-14T10:34:37;20.07;;;3.07;;
2225;SDS011;1119;48.288;8.726;2023-12-14T10:37:06;20.00;;;2.87;;
2225;SDS011;1119;48.288;8.726;2023-12-14T10:39:34;20.07;;;2.80;;
2225;SDS011;1119;48.288;8.726;2023-12-14T10:42:03;20.10;;;3.07;;
2225;SDS011;1119;48.288;8.726;2023-12-14T10:44:36;19.97;;;3.17;;
2225;SDS011;1119;48.288;8.726;2023-12-14T10:47:03;20.10;;;2.93;;
2225;SDS011;1119;48.288;8.726;2023-12-14T10:49:33;20.07;;;3.20;;
2225;SDS011;1119;48.288;8.726;2023-12-14T10:52:01;19.90;;;2.50;;
2225;SDS011;1119;48.288;8.726;2023-12-14T10:54:34;20.03;;;2.80;;
2225;SDS011;1119;48.288;8.726;2023-12-14T10:57:04;20.00;;;2.80;;
2225;SDS011;1119;48.288;8.726;2023-12-14T10:59:34;19.93;;;2.60;;
2225;SDS011;1119;48.288;8.726;2023-12-14T11:02:06;20.00;;;2.93;;
2225;SDS011;1119;48.288;8.726;2023-12-14T11:10:15;20.10;;;2.77;;
2225;SDS011;1119;48.288;8.726;2023-12-14T11:12:53;20.20;;;3.03;;
2225;SDS011;1119;48.288;8.726;2023-12-14T11:15:23;20.10;;;2.67;;
2225;SDS011;1119;48.288;8.726;2023-12-14T11:20:54;19.90;;;2.50;;
2225;SDS011;1119;48.288;8.726;2023-12-14T11:23:28;19.90;;;2.47;;
2225;SDS011;1119;48.288;8.726;2023-12-14T11:25:59;20.13;;;2.83;;
2225;SDS011;1119;48.288;8.726;2023-12-14T11:28:31;20.13;;;2.77;;
2225;SDS011;1119;48.288;8.726;2023-12-14T11:31:00;20.03;;;2.60;;
2225;SDS011;1119;48.288;8.726;2023-12-14T11:33:31;20.00;;;2.90;;
2225;SDS011;1119;48.288;8.726;2023-12-14T11:36:00;20.10;;;2.97;;
2225;SDS011;1119;48.288;8.726;2023-12-14T11:38:30;20.03;;;2.83;;
2225;SDS011;1119;48.288;8.726;2023-12-14T11:40:58;19.97;;;2.57;;
2225;SDS011;1119;48.288;8.726;2023-12-14T11:43:25;20.10;;;2.87;;
2225;SDS011;1119;48.288;8.726;2023-12-14T11:45:54;20.00;;;2.87;;
2225;SDS011;1119;48.288;8.726;2023-12-14T11:48:21;20.10;;;3.07;;
2225;SDS011;1119;48.288;8.726;2023-12-14T11:50:49;20.13;;;3.13;;
2225;SDS011;1119;48.288;8.726;2023-12-14T11:53:16;20.10;;;3.00;;
2225;SDS011;1119;48.288;8.726;2023-12-14T11:55:44;20.20;;;3.07;;
2225;SDS011;1119;48.288;8.726;2023-12-14T11:58:12;19.90;;;2.70;;
2225;SDS011;1119;48.288;8.726;2023-12-14T12:00:42;20.10;;;3.00;;
2225;SDS011;1119;48.288;8.726;2023-12-14T12:03:13;20.00;;;2.87;;
2225;SDS011;1119;48.288;8.726;2023-12-14T12:05:43;20.07;;;2.60;;
2225;SDS011;1119;48.288;8.726;2023-12-14T12:08:12;20.10;;;3.00;;
2225;SDS011;1119;48.288;8.726;2023-12-14T12:10:41;20.10;;;2.60;;
2225;SDS011;1119;48.288;8.726;2023-12-14T12:13:11;20.00;;;2.57;;
2225;SDS011;1119;48.288;8.726;2023-12-14T12:15:42;19.80;;;2.27;;
2225;SDS011;1119;48.288;8.726;2023-12-14T12:18:11;19.90;;;2.27;;
2225;SDS011;1119;48.288;8.726;2023-12-14T12:20:42;20.07;;;2.43;;
2225;SDS011;1119;48.288;8.726;2023-12-14T12:23:09;20.07;;;2.40;;
2225;SDS011;1119;48.288;8.726;2023-12-14T12:25:37;20.10;;;2.60;;
2225;SDS011;1119;48.288;8.726;2023-12-14T12:28:04;20.10;;;2.50;;
2225;SDS011;1119;48.288;8.726;2023-12-14T12:30:31;20.10;;;2.63;;
2225;SDS011;1119;48.288;8.726;2023-12-14T12:32:59;20.10;;;2.57;;
2225;SDS011;1119;48.288;8.726;2023-12-14T12:35:28;20.20;;;3.00;;
2225;SDS011;1119;48.288;8.726;2023-12-14T12:37:58;20.17;;;2.70;;
2225;SDS011;1119;48.288;8.726;2023-12-14T12:40:25;20.00;;;2.33;;
2225;SDS011;1119;48.288;8.726;2023-12-14T12:42:52;20.27;;;2.90;;
2225;SDS011;1119;48.288;8.726;2023-12-14T12:45:20;20.10;;;2.63;;
2225;SDS011;1119;48.288;8.726;2023-12-14T12:47:50;20.00;;;2.43;;
2225;SDS011;1119;48.288;8.726;2023-12-14T12:50:17;20.03;;;2.60;;
2225;SDS011;1119;48.288;8.726;2023-12-14T12:52:46;20.10;;;2.70;;
2225;SDS011;1119;48.288;8.726;2023-12-14T12:55:14;20.10;;;2.73;;
2225;SDS011;1119;48.288;8.726;2023-12-14T12:57:42;20.17;;;2.93;;
2225;SDS011;1119;48.288;8.726;2023-12-14T13:00:10;20.30;;;3.20;;
2225;SDS011;1119;48.288;8.726;2023-12-14T13:02:38;20.10;;;2.70;;
2225;SDS011;1119;48.288;8.726;2023-12-14T13:05:06;20.10;;;2.73;;
2225;SDS011;1119;48.288;8.726;2023-12-14T13:07:35;20.20;;;3.00;;
2225;SDS011;1119;48.288;8.726;2023-12-14T13:10:04;20.33;;;3.20;;
2225;SDS011;1119;48.288;8.726;2023-12-14T13:12:33;20.10;;;2.63;;
2225;SDS011;1119;48.288;8.726;2023-12-14T13:15:00;20.20;;;3.00;;
2225;SDS011;1119;48.288;8.726;2023-12-14T13:17:28;20.23;;;2.90;;
2225;SDS011;1119;48.288;8.726;2023-12-14T13:19:55;20.10;;;2.67;;
2225;SDS011;1119;48.288;8.726;2023-12-14T13:22:22;20.10;;;2.93;;
2225;SDS011;1119;48.288;8.726;2023-12-14T13:24:49;20.20;;;2.70;;
2225;SDS011;1119;48.288;8.726;2023-12-14T13:27:18;20.30;;;2.97;;
2225;SDS011;1119;48.288;8.726;2023-12-14T13:29:46;20.20;;;2.70;;
2225;SDS011;1119;48.288;8.726;2023-12-14T13:32:13;20.30;;;2.80;;
2225;SDS011;1119;48.288;8.726;2023-12-14T13:34:40;20.30;;;3.07;;
2225;SDS011;1119;48.288;8.726;2023-12-14T13:37:08;20.10;;;2.43;;
2225;SDS011;1119;48.288;8.726;2023-12-14T13:39:35;20.17;;;2.53;;
2225;SDS011;1119;48.288;8.726;2023-12-14T13:42:03;20.20;;;3.00;;
2225;SDS011;1119;48.288;8.726;2023-12-14T13:44:33;20.20;;;2.57;;
2225;SDS011;1119;48.288;8.726;2023-12-14T13:47:01;20.20;;;2.60;;
2225;SDS011;1119;48.288;8.726;2023-12-14T13:49:29;20.07;;;2.43;;
2225;SDS011;1119;48.288;8.726;2023-12-14T13:51:56;20.30;;;2.87;;
2225;SDS011;1119;48.288;8.726;2023-12-14T13:54:24;20.20;;;2.77;;
2225;SDS011;1119;48.288;8.726;2023-12-14T13:56:51;20.30;;;2.83;;
2225;SDS011;1119;48.288;8.726;2023-12-14T13:59:19;20.27;;;2.90;;
2225;SDS011;1119;48.288;8.726;2023-12-14T14:01:48;20.20;;;2.93;;
2225;SDS011;1119;48.288;8.726;2023-12-14T14:04:16;20.20;;;2.80;;
2225;SDS011;1119;48.288;8.726;2023-12-14T14:06:43;20.30;;;2.80;;
2225;SDS011;1119;48.288;8.726;2023-12-14T14:09:11;20.27;;;2.90;;
2225;SDS011;1119;48.288;8.726;2023-12-14T14:11:39;20.20;;;2.80;;
2225;SDS011;1119;48.288;8.726;2023-12-14T14:14:10;20.30;;;2.90;;
2225;SDS011;1119;48.288;8.726;2023-12-14T14:16:38;20.10;;;2.77;;
2225;SDS011;1119;48.288;8.726;2023-12-14T14:19:07;20.20;;;2.60;;
2225;SDS011;1119;48.288;8.726;2023-12-14T14:21:34;20.17;;;2.50;;
2225;SDS011;1119;48.288;8.726;2023-12-14T14:24:02;20.20;;;2.67;;
2225;SDS011;1119;48.288;8.726;2023-12-14T14:26:30;20.33;;;2.90;;
2225;SDS011;1119;48.288;8.726;2023-12-14T14:28:58;20.17;;;2.50;;
2225;SDS011;1119;48.288;8.726;2023-12-14T14:31:27;20.33;;;3.10;;
2225;SDS011;1119;48.288;8.726;2023-12-14T14:33:57;20.27;;;2.80;;
2225;SDS011;1119;48.288;8.726;2023-12-14T14:36:26;20.10;;;2.63;;
2225;SDS011;1119;48.288;8.726;2023-12-14T14:38:53;20.30;;;3.00;;
2225;SDS011;1119;48.288;8.726;2023-12-14T14:41:22;20.27;;;2.93;;
2225;SDS011;1119;48.288;8.726;2023-12-14T14:43:49;20.30;;;2.97;;
2225;SDS011;1119;48.288;8.726;2023-12-14T14:46:17;20.30;;;2.93;;
2225;SDS011;1119;48.288;8.726;2023-12-14T14:48:44;20.10;;;2.53;;
2225;SDS011;1119;48.288;8.726;2023-12-14T14:51:12;20.30;;;2.93;;
2225;SDS011;1119;48.288;8.726;2023-12-14T14:53:41;20.37;;;3.07;;
2225;SDS011;1119;48.288;8.726;2023-12-14T14:56:08;20.20;;;2.80;;
2225;SDS011;1119;48.288;8.726;2023-12-14T14:58:36;20.30;;;3.00;;
2225;SDS011;1119;48.288;8.726;2023-12-14T15:01:03;20.20;;;3.00;;
2225;SDS011;1119;48.288;8.726;2023-12-14T15:03:31;20.27;;;3.20;;
2225;SDS011;1119;48.288;8.726;2023-12-14T15:05:58;20.27;;;2.73;;
2225;SDS011;1119;48.288;8.726;2023-12-14T15:08:25;20.20;;;2.90;;
2225;SDS011;1119;48.288;8.726;2023-12-14T15:10:54;20.10;;;2.80;;
2225;SDS011;1119;48.288;8.726;2023-12-14T15:13:22;20.20;;;3.00;;